Time;durP1;ratioP1;P1;durP2;ratioP2;P2;SDS_P1;SDS_P2;PMS_P1;PMS_P2;Temp;Humidity;BMP_temperature;BMP_pressure;BME280_temperature;BME280_humidity;BME280_pressure;Samples;Min_cycle;Max_cycle;Signal;HPM_P1;HPM_P2
2023/02/05 00:01:53;;;;;;;15.85;8.43;;;;;;;;;;5018329;28;20675;-74
2023/02/05 00:04:19;;;;;;;13.35;8.45;;;;;;;;;;5026094;28;20034;-73
2023/02/05 00:06:45;;;;;;;15.32;8.35;;;;;;;;;;5022020;28;20030;-73
2023/02/05 00:09:11;;;;;;;16.83;8.38;;;;;;;;;;5014574;28;20029;-73
2023/02/05 00:11:37;;;;;;;17.30;7.88;;;;;;;;;;5016581;28;20521;-73
2023/02/05 00:14:03;;;;;;;18.17;9.15;;;;;;;;;;5013627;28;20026;-73
2023/02/05 00:16:29;;;;;;;18.23;8.43;;;;;;;;;;5018389;28;20086;-73
2023/02/05 00:18:56;;;;;;;14.00;8.20;;;;;;;;;;5018493;28;20565;-73
2023/02/05 00:21:22;;;;;;;13.32;7.82;;;;;;;;;;5014121;28;20038;-73
2023/02/05 00:23:49;;;;;;;12.95;8.30;;;;;;;;;;5012317;28;20176;-73
2023/02/05 00:26:15;;;;;;;12.35;7.90;;;;;;;;;;5023739;28;20029;-73
2023/02/05 00:28:41;;;;;;;14.65;8.07;;;;;;;;;;5022195;28;20030;-73
2023/02/05 00:31:15;;;;;;;14.15;7.47;;;;;;;;;;5014901;28;20113;-74
2023/02/05 00:33:41;;;;;;;14.32;7.55;;;;;;;;;;5015150;28;20087;-74
2023/02/05 00:36:07;;;;;;;13.23;7.47;;;;;;;;;;5012656;28;20380;-73
2023/02/05 00:38:33;;;;;;;15.23;8.30;;;;;;;;;;5024224;28;20040;-73
2023/02/05 00:40:59;;;;;;;16.20;7.10;;;;;;;;;;5016790;28;20025;-73
2023/02/05 00:43:25;;;;;;;14.43;7.85;;;;;;;;;;5017137;28;20025;-73
2023/02/05 00:45:51;;;;;;;14.82;7.82;;;;;;;;;;5015301;28;20025;-73
2023/02/05 00:48:17;;;;;;;13.25;6.95;;;;;;;;;;5019820;28;20405;-73
2023/02/05 00:50:42;;;;;;;11.57;6.55;;;;;;;;;;5017763;28;20029;-73
2023/02/05 00:53:08;;;;;;;10.88;6.90;;;;;;;;;;5013649;28;20025;-74
2023/02/05 00:55:34;;;;;;;11.52;7.10;;;;;;;;;;5022577;28;20030;-73
2023/02/05 00:58:00;;;;;;;11.48;6.57;;;;;;;;;;5006987;28;20045;-73
2023/02/05 01:00:27;;;;;;;12.50;6.45;;;;;;;;;;5012784;28;20052;-73
2023/02/05 01:02:53;;;;;;;15.30;6.43;;;;;;;;;;5031782;28;20071;-73
2023/02/05 01:05:19;;;;;;;13.52;6.95;;;;;;;;;;5025812;28;20041;-73
2023/02/05 01:07:45;;;;;;;12.63;7.22;;;;;;;;;;5019227;28;20108;-74
2023/02/05 01:10:11;;;;;;;14.52;6.82;;;;;;;;;;5014244;28;20033;-73
2023/02/05 01:12:37;;;;;;;13.05;6.35;;;;;;;;;;5023198;28;20149;-74
2023/02/05 01:15:04;;;;;;;10.27;6.55;;;;;;;;;;5019986;28;20206;-73
2023/02/05 01:17:30;;;;;;;10.50;6.60;;;;;;;;;;5017697;28;20095;-72
2023/02/05 01:19:56;;;;;;;7.60;5.47;;;;;;;;;;5016599;28;20036;-72
2023/02/05 01:22:22;;;;;;;9.60;6.13;;;;;;;;;;5027945;28;20113;-73
2023/02/05 01:24:48;;;;;;;9.57;5.60;;;;;;;;;;5012471;28;20022;-72
2023/02/05 01:27:14;;;;;;;9.98;6.03;;;;;;;;;;5009891;28;20120;-73
2023/02/05 01:29:40;;;;;;;10.13;5.75;;;;;;;;;;5017261;28;20434;-73
2023/02/05 01:32:06;;;;;;;10.90;5.68;;;;;;;;;;5022848;28;20025;-72
2023/02/05 01:34:32;;;;;;;12.00;6.05;;;;;;;;;;5023225;28;20030;-72
2023/02/05 01:37:00;;;;;;;10.00;5.80;;;;;;;;;;5022535;28;20482;-73
2023/02/05 01:39:26;;;;;;;9.55;5.80;;;;;;;;;;5022396;28;20110;-73
2023/02/05 01:41:52;;;;;;;9.73;5.88;;;;;;;;;;5011138;28;20033;-72
2023/02/05 01:44:25;;;;;;;9.45;5.53;;;;;;;;;;5015078;28;20025;-73
2023/02/05 01:46:52;;;;;;;10.25;5.85;;;;;;;;;;5014972;28;20025;-73
2023/02/05 01:49:27;;;;;;;9.63;5.35;;;;;;;;;;5018524;28;20038;-73
2023/02/05 01:51:55;;;;;;;9.27;5.40;;;;;;;;;;5027276;28;20499;-72
2023/02/05 01:54:23;;;;;;;10.60;5.90;;;;;;;;;;5020985;28;20390;-73
2023/02/05 01:56:55;;;;;;;8.95;5.35;;;;;;;;;;5018633;28;20055;-73
2023/02/05 01:59:23;;;;;;;13.00;6.20;;;;;;;;;;5015984;28;20252;-73
2023/02/05 02:01:50;;;;;;;8.98;5.10;;;;;;;;;;5025865;28;20205;-72
2023/02/05 02:04:20;;;;;;;7.68;4.70;;;;;;;;;;5019286;28;20026;-73
2023/02/05 02:06:46;;;;;;;8.75;5.03;;;;;;;;;;5016638;28;20057;-73
2023/02/05 02:09:12;;;;;;;8.35;4.25;;;;;;;;;;5021690;28;20064;-73
2023/02/05 02:11:39;;;;;;;6.85;4.60;;;;;;;;;;5015584;28;20520;-73
2023/02/05 02:14:08;;;;;;;7.75;4.22;;;;;;;;;;5021690;28;20029;-73
2023/02/05 02:16:35;;;;;;;10.02;5.20;;;;;;;;;;5024767;28;20457;-74
2023/02/05 02:19:02;;;;;;;9.65;4.88;;;;;;;;;;5024670;28;20029;-73
2023/02/05 02:21:38;;;;;;;7.68;4.32;;;;;;;;;;5026257;28;20076;-73
2023/02/05 02:24:22;;;;;;;11.02;4.68;;;;;;;;;;5010479;28;20025;-73
2023/02/05 02:26:48;;;;;;;6.20;4.30;;;;;;;;;;5019383;28;20029;-73
2023/02/05 02:29:22;;;;;;;7.03;4.00;;;;;;;;;;5025515;28;20039;-72
2023/02/05 02:31:56;;;;;;;8.95;4.65;;;;;;;;;;5025863;28;20393;-74
2023/02/05 02:34:49;;;;;;;5.28;3.78;;;;;;;;;;5026295;28;20021;-73
2023/02/05 02:37:21;;;;;;;8.38;4.57;;;;;;;;;;5017641;28;20394;-73
2023/02/05 02:39:51;;;;;;;6.07;3.80;;;;;;;;;;5026342;28;20041;-72
2023/02/05 02:42:22;;;;;;;5.40;3.83;;;;;;;;;;5019585;28;20030;-73
2023/02/05 02:44:59;;;;;;;7.20;4.30;;;;;;;;;;5020796;28;20501;-73
2023/02/05 02:47:28;;;;;;;6.75;4.25;;;;;;;;;;5018423;28;20528;-73
2023/02/05 02:50:00;;;;;;;7.07;4.35;;;;;;;;;;5022208;28;20558;-73
2023/02/05 02:52:26;;;;;;;7.70;4.03;;;;;;;;;;5023739;28;20038;-73
2023/02/05 02:54:54;;;;;;;7.15;4.03;;;;;;;;;;5027520;28;20029;-73
2023/02/05 02:57:22;;;;;;;6.45;3.47;;;;;;;;;;5010239;28;20037;-73
2023/02/05 02:59:49;;;;;;;6.63;4.30;;;;;;;;;;5024797;28;20025;-73
2023/02/05 03:02:16;;;;;;;8.73;3.88;;;;;;;;;;5023528;28;20175;-73
2023/02/05 03:04:51;;;;;;;5.18;3.20;;;;;;;;;;5015142;28;20726;-73
2023/02/05 03:07:20;;;;;;;8.07;4.00;;;;;;;;;;5018656;28;20026;-73
2023/02/05 03:09:53;;;;;;;6.55;3.13;;;;;;;;;;5020596;28;20032;-73
2023/02/05 03:12:20;;;;;;;6.53;3.72;;;;;;;;;;5026099;28;20037;-72
2023/02/05 03:14:46;;;;;;;7.50;4.22;;;;;;;;;;5024141;28;20038;-72
2023/02/05 03:17:17;;;;;;;8.02;3.50;;;;;;;;;;5027198;28;20399;-72
2023/02/05 03:19:44;;;;;;;8.18;3.78;;;;;;;;;;5020893;28;20527;-72
2023/02/05 03:22:10;;;;;;;7.53;3.97;;;;;;;;;;5018918;28;20049;-73
2023/02/05 03:24:36;;;;;;;5.40;3.45;;;;;;;;;;5015795;28;20556;-73
2023/02/05 03:27:02;;;;;;;6.25;3.38;;;;;;;;;;5018186;28;20027;-73
2023/02/05 03:29:34;;;;;;;5.55;3.17;;;;;;;;;;5021704;28;20121;-73
2023/02/05 03:32:21;;;;;;;5.38;3.28;;;;;;;;;;5014503;28;20053;-73
2023/02/05 03:34:53;;;;;;;4.78;3.33;;;;;;;;;;5016469;28;20486;-73
2023/02/05 03:37:30;;;;;;;7.28;3.15;;;;;;;;;;5011897;28;20040;-73
2023/02/05 03:40:19;;;;;;;6.40;3.42;;;;;;;;;;5013385;28;20038;-73
2023/02/05 03:42:53;;;;;;;6.38;2.85;;;;;;;;;;5020555;28;20494;-72
2023/02/05 03:45:31;;;;;;;3.78;2.70;;;;;;;;;;5022410;28;20029;-73
2023/02/05 03:47:57;;;;;;;6.00;3.10;;;;;;;;;;5021919;28;20021;-72
2023/02/05 03:50:30;;;;;;;4.38;2.90;;;;;;;;;;5021440;28;20096;-73
2023/02/05 03:53:11;;;;;;;7.10;3.47;;;;;;;;;;5030968;28;20044;-73
2023/02/05 03:55:39;;;;;;;8.27;3.13;;;;;;;;;;5023667;28;20029;-73
2023/02/05 03:58:11;;;;;;;5.13;3.10;;;;;;;;;;5022500;28;20045;-73
2023/02/05 04:00:37;;;;;;;5.68;2.85;;;;;;;;;;5013372;28;20125;-73
2023/02/05 04:03:03;;;;;;;5.22;2.92;;;;;;;;;;5019427;28;20034;-73
2023/02/05 04:05:29;;;;;;;5.22;3.25;;;;;;;;;;5021252;28;20183;-73
2023/02/05 04:07:55;;;;;;;3.67;2.58;;;;;;;;;;5022833;28;20083;-73
2023/02/05 04:10:21;;;;;;;4.05;2.60;;;;;;;;;;5019807;28;20057;-74
2023/02/05 04:12:47;;;;;;;5.07;2.80;;;;;;;;;;5021871;28;20117;-72
2023/02/05 04:15:13;;;;;;;4.53;2.83;;;;;;;;;;5024092;28;20033;-73
2023/02/05 04:17:39;;;;;;;4.00;2.70;;;;;;;;;;5026478;28;20033;-73
2023/02/05 04:20:06;;;;;;;4.00;2.70;;;;;;;;;;5017534;28;20113;-72
2023/02/05 04:22:32;;;;;;;6.78;2.38;;;;;;;;;;5020065;28;20041;-72
2023/02/05 04:24:58;;;;;;;4.78;2.80;;;;;;;;;;5026244;28;20033;-73
2023/02/05 04:27:24;;;;;;;3.60;2.63;;;;;;;;;;5014980;28;20153;-74
2023/02/05 04:29:50;;;;;;;3.78;2.58;;;;;;;;;;5017695;28;20065;-73
2023/02/05 04:32:16;;;;;;;5.63;2.55;;;;;;;;;;5011471;28;20442;-73
2023/02/05 04:34:42;;;;;;;4.75;2.55;;;;;;;;;;5017716;28;20119;-74
2023/02/05 04:37:08;;;;;;;4.25;2.75;;;;;;;;;;5022464;28;20052;-73
2023/02/05 04:39:34;;;;;;;5.25;2.28;;;;;;;;;;5024536;28;20393;-73
2023/02/05 04:42:00;;;;;;;4.13;2.60;;;;;;;;;;5021308;28;20041;-74
2023/02/05 04:44:26;;;;;;;4.13;2.45;;;;;;;;;;5015592;28;20083;-73
2023/02/05 04:46:52;;;;;;;3.55;2.42;;;;;;;;;;5025277;28;20037;-74
2023/02/05 04:49:19;;;;;;;4.55;2.67;;;;;;;;;;5024615;28;20087;-74
2023/02/05 04:51:45;;;;;;;3.95;2.55;;;;;;;;;;5018343;28;20041;-73
2023/02/05 04:54:11;;;;;;;3.72;2.42;;;;;;;;;;5018929;28;20095;-73
2023/02/05 04:56:37;;;;;;;3.97;2.38;;;;;;;;;;5024051;28;20418;-74
2023/02/05 04:59:03;;;;;;;3.35;2.25;;;;;;;;;;5025466;28;20029;-73
2023/02/05 05:01:29;;;;;;;3.65;2.20;;;;;;;;;;5016234;28;20053;-73
2023/02/05 05:03:55;;;;;;;3.97;2.47;;;;;;;;;;5015262;28;20029;-72
2023/02/05 05:06:21;;;;;;;7.18;2.72;;;;;;;;;;5025550;28;20025;-73
2023/02/05 05:08:47;;;;;;;3.63;2.60;;;;;;;;;;5018819;28;20068;-72
2023/02/05 05:11:15;;;;;;;3.53;2.42;;;;;;;;;;5007756;28;20418;-73
2023/02/05 05:13:41;;;;;;;4.68;2.40;;;;;;;;;;5017641;28;20125;-73
2023/02/05 05:16:07;;;;;;;3.95;2.67;;;;;;;;;;5027259;28;20105;-77
2023/02/05 05:18:33;;;;;;;6.45;2.40;;;;;;;;;;5023976;28;20033;-73
2023/02/05 05:21:00;;;;;;;4.20;2.20;;;;;;;;;;5022024;28;20030;-73
2023/02/05 05:23:26;;;;;;;4.40;2.13;;;;;;;;;;5018503;28;20033;-73
2023/02/05 05:25:52;;;;;;;3.20;2.00;;;;;;;;;;5024806;28;20116;-73
2023/02/05 05:28:18;;;;;;;4.22;2.38;;;;;;;;;;5033130;28;20029;-72
2023/02/05 05:30:45;;;;;;;2.85;2.30;;;;;;;;;;5032395;28;20026;-74
2023/02/05 05:33:11;;;;;;;3.45;2.05;;;;;;;;;;5024238;28;20030;-73
2023/02/05 05:35:37;;;;;;;3.72;2.25;;;;;;;;;;5018846;28;20030;-73
2023/02/05 05:38:03;;;;;;;2.60;1.88;;;;;;;;;;5016561;28;20092;-73
2023/02/05 05:46:00;;;;;;;4.85;2.25;;;;;;;;;;5017121;28;20033;-73
2023/02/05 05:48:26;;;;;;;2.72;1.98;;;;;;;;;;5017628;28;20555;-73
2023/02/05 05:50:53;;;;;;;2.97;2.13;;;;;;;;;;5028730;28;20033;-74
2023/02/05 05:53:19;;;;;;;3.60;1.90;;;;;;;;;;5029186;28;20101;-74
2023/02/05 05:55:45;;;;;;;3.03;1.73;;;;;;;;;;5030979;28;20029;-73
2023/02/05 05:58:11;;;;;;;2.85;2.20;;;;;;;;;;5012965;28;20646;-73
2023/02/05 06:00:37;;;;;;;4.65;2.20;;;;;;;;;;5030831;28;20045;-73
2023/02/05 06:03:03;;;;;;;2.80;2.03;;;;;;;;;;5021459;28;20026;-73
2023/02/05 06:05:30;;;;;;;3.13;1.92;;;;;;;;;;5028765;28;20061;-73
2023/02/05 06:07:56;;;;;;;3.72;2.05;;;;;;;;;;5019245;28;20061;-73
2023/02/05 06:10:22;;;;;;;2.08;1.67;;;;;;;;;;5021999;28;20536;-73
2023/02/05 06:12:49;;;;;;;4.35;2.28;;;;;;;;;;5028819;28;20021;-73
2023/02/05 06:15:15;;;;;;;1.90;1.60;;;;;;;;;;5033295;28;20724;-73
2023/02/05 06:17:41;;;;;;;2.33;1.77;;;;;;;;;;5021650;28;20053;-74
2023/02/05 06:20:07;;;;;;;4.72;2.08;;;;;;;;;;5017020;28;20032;-74
2023/02/05 06:22:33;;;;;;;3.25;2.20;;;;;;;;;;5028883;28;20083;-73
2023/02/05 06:24:59;;;;;;;3.33;1.88;;;;;;;;;;5030413;28;20026;-72
2023/02/05 06:27:25;;;;;;;5.90;2.13;;;;;;;;;;5025665;28;20029;-72
2023/02/05 06:29:51;;;;;;;3.55;1.77;;;;;;;;;;5019575;28;20663;-73
2023/02/05 06:32:16;;;;;;;2.65;1.85;;;;;;;;;;5017168;28;20038;-73
2023/02/05 06:34:42;;;;;;;2.80;1.85;;;;;;;;;;5028664;28;20501;-73
2023/02/05 06:37:08;;;;;;;2.30;1.63;;;;;;;;;;5022921;28;20405;-72
2023/02/05 06:39:34;;;;;;;3.65;2.00;;;;;;;;;;5015262;28;20032;-72
2023/02/05 06:42:00;;;;;;;2.88;2.10;;;;;;;;;;5013048;28;20013;-72
2023/02/05 06:44:26;;;;;;;2.17;1.65;;;;;;;;;;5013720;28;20032;-73
2023/02/05 06:46:52;;;;;;;3.05;1.90;;;;;;;;;;5025375;28;20052;-73
2023/02/05 06:49:18;;;;;;;2.65;1.90;;;;;;;;;;5033393;28;20493;-72
2023/02/05 06:51:44;;;;;;;4.30;2.10;;;;;;;;;;5031935;28;20021;-73
2023/02/05 06:54:10;;;;;;;3.22;1.83;;;;;;;;;;5033375;28;20052;-73
2023/02/05 06:56:36;;;;;;;2.97;2.00;;;;;;;;;;5032347;28;20034;-72
2023/02/05 06:59:02;;;;;;;5.20;2.03;;;;;;;;;;5033124;28;20032;-73
2023/02/05 07:01:28;;;;;;;4.35;2.00;;;;;;;;;;5032730;28;20053;-73
2023/02/05 07:03:55;;;;;;;3.08;1.65;;;;;;;;;;5036148;28;20032;-73
2023/02/05 07:06:24;;;;;;;2.42;1.52;;;;;;;;;;5030193;28;20033;-73
2023/02/05 07:08:50;;;;;;;3.42;1.90;;;;;;;;;;5028425;28;20544;-73
2023/02/05 07:11:19;;;;;;;5.75;2.10;;;;;;;;;;5032059;28;21052;-73
2023/02/05 07:13:45;;;;;;;2.47;1.50;;;;;;;;;;5031043;28;20025;-73
2023/02/05 07:16:11;;;;;;;3.20;2.10;;;;;;;;;;5034348;28;20591;-73
2023/02/05 07:18:37;;;;;;;4.55;2.58;;;;;;;;;;5034507;28;20021;-74
2023/02/05 07:21:07;;;;;;;2.22;1.90;;;;;;;;;;5030804;28;20045;-73
2023/02/05 07:23:34;;;;;;;2.45;1.55;;;;;;;;;;5033426;28;20033;-73
2023/02/05 07:26:07;;;;;;;3.22;1.92;;;;;;;;;;5032887;28;20071;-73
2023/02/05 07:28:33;;;;;;;3.50;2.13;;;;;;;;;;5028960;28;20490;-73
2023/02/05 07:31:03;;;;;;;4.13;1.88;;;;;;;;;;5029025;28;20044;-73
2023/02/05 07:33:29;;;;;;;4.35;2.10;;;;;;;;;;5030272;28;20212;-73
2023/02/05 07:35:55;;;;;;;4.40;2.13;;;;;;;;;;5035385;28;20021;-73
2023/02/05 07:38:23;;;;;;;3.97;1.95;;;;;;;;;;5031514;28;20570;-73
2023/02/05 07:40:49;;;;;;;3.90;2.28;;;;;;;;;;5031609;28;20116;-74
2023/02/05 07:43:15;;;;;;;3.30;1.98;;;;;;;;;;5034626;28;20036;-73
2023/02/05 07:45:41;;;;;;;4.22;2.35;;;;;;;;;;5035155;28;20485;-73
2023/02/05 07:48:07;;;;;;;2.92;1.70;;;;;;;;;;5029836;28;20075;-73
2023/02/05 07:50:33;;;;;;;3.40;2.22;;;;;;;;;;5032277;28;20021;-73
2023/02/05 07:52:59;;;;;;;3.17;1.88;;;;;;;;;;5031830;28;20127;-73
2023/02/05 07:55:25;;;;;;;2.88;1.77;;;;;;;;;;5031724;28;20029;-73
2023/02/05 07:57:51;;;;;;;2.83;2.20;;;;;;;;;;5030025;28;20040;-73
2023/02/05 08:00:17;;;;;;;4.20;2.35;;;;;;;;;;5029309;28;20066;-73
2023/02/05 08:02:43;;;;;;;3.70;2.10;;;;;;;;;;5034560;28;20029;-73
2023/02/05 08:05:09;;;;;;;3.65;2.13;;;;;;;;;;5027974;28;20100;-73
2023/02/05 08:07:36;;;;;;;3.17;2.00;;;;;;;;;;5034753;28;20040;-73
2023/02/05 08:10:02;;;;;;;3.53;2.00;;;;;;;;;;5033752;28;20021;-74
2023/02/05 08:12:28;;;;;;;3.35;2.05;;;;;;;;;;5033046;28;20025;-72
2023/02/05 08:14:54;;;;;;;3.50;2.20;;;;;;;;;;5029134;28;20134;-74
2023/02/05 08:17:20;;;;;;;4.95;2.33;;;;;;;;;;5031263;28;20152;-73
2023/02/05 08:19:46;;;;;;;3.35;2.25;;;;;;;;;;5031781;28;20041;-73
2023/02/05 08:22:12;;;;;;;6.95;2.42;;;;;;;;;;5030797;28;20021;-73
2023/02/05 08:24:38;;;;;;;4.82;2.20;;;;;;;;;;5017879;28;20542;-70
2023/02/05 08:27:04;;;;;;;3.47;1.80;;;;;;;;;;5009605;28;20025;-68
2023/02/05 08:29:30;;;;;;;3.50;2.20;;;;;;;;;;5022339;28;20025;-68
2023/02/05 08:31:56;;;;;;;3.63;2.15;;;;;;;;;;5017319;28;20040;-68
2023/02/05 08:34:21;;;;;;;2.90;2.38;;;;;;;;;;5014516;28;20060;-75
2023/02/05 08:36:48;;;;;;;4.80;1.95;;;;;;;;;;5016922;28;20037;-70
2023/02/05 08:39:14;;;;;;;3.58;1.63;;;;;;;;;;5013596;28;20026;-70
2023/02/05 08:41:40;;;;;;;3.58;2.10;;;;;;;;;;5019122;28;20466;-71
2023/02/05 08:44:06;;;;;;;2.88;1.92;;;;;;;;;;5006996;28;20022;-71
2023/02/05 08:46:32;;;;;;;3.40;2.00;;;;;;;;;;5017769;28;20026;-69
2023/02/05 08:48:58;;;;;;;6.20;1.88;;;;;;;;;;5011009;28;20107;-70
2023/02/05 08:51:24;;;;;;;3.42;1.80;;;;;;;;;;5018243;28;20064;-70
2023/02/05 08:53:50;;;;;;;4.55;1.95;;;;;;;;;;5034256;28;20087;-70
2023/02/05 08:56:16;;;;;;;2.47;1.75;;;;;;;;;;5026949;28;20022;-70
2023/02/05 08:58:42;;;;;;;3.22;1.92;;;;;;;;;;5033244;28;20075;-70
2023/02/05 09:01:10;;;;;;;2.40;1.83;;;;;;;;;;5029580;28;20146;-71
2023/02/05 09:03:36;;;;;;;2.60;1.70;;;;;;;;;;5032758;28;20033;-70
2023/02/05 09:06:07;;;;;;;4.57;1.38;;;;;;;;;;5033074;28;20022;-70
2023/02/05 09:08:33;;;;;;;2.35;1.63;;;;;;;;;;5036076;28;20082;-71
2023/02/05 09:10:59;;;;;;;2.20;1.70;;;;;;;;;;5035175;28;20026;-71
2023/02/05 09:13:25;;;;;;;2.45;1.77;;;;;;;;;;5031821;28;20124;-70
2023/02/05 09:15:51;;;;;;;1.88;1.45;;;;;;;;;;5034979;28;20021;-70
2023/02/05 09:18:17;;;;;;;3.35;1.80;;;;;;;;;;5034950;28;20033;-71
2023/02/05 09:20:44;;;;;;;2.53;1.40;;;;;;;;;;5032513;28;20021;-70
2023/02/05 09:23:11;;;;;;;3.13;1.95;;;;;;;;;;5030297;28;20030;-70
2023/02/05 09:25:38;;;;;;;1.77;1.30;;;;;;;;;;5033562;28;20128;-70
2023/02/05 09:28:05;;;;;;;4.03;1.52;;;;;;;;;;5033903;28;20433;-72
2023/02/05 09:30:32;;;;;;;3.63;1.52;;;;;;;;;;5037744;28;20025;-73
2023/02/05 09:32:58;;;;;;;2.25;1.20;;;;;;;;;;5030687;28;20051;-71
2023/02/05 09:35:24;;;;;;;2.90;1.88;;;;;;;;;;5028631;28;20028;-72
2023/02/05 09:37:49;;;;;;;2.70;1.60;;;;;;;;;;5034905;28;20028;-74
2023/02/05 09:40:24;;;;;;;1.60;1.40;;;;;;;;;;5037116;28;20075;-72
2023/02/05 09:43:19;;;;;;;3.13;1.58;;;;;;;;;;5038098;28;20029;-72
2023/02/05 09:45:51;;;;;;;2.45;1.40;;;;;;;;;;5016019;28;20033;-72
2023/02/05 09:48:33;;;;;;;2.25;1.60;;;;;;;;;;5023775;28;20159;-72
2023/02/05 09:51:00;;;;;;;3.63;2.13;;;;;;;;;;5025251;28;21203;-72
2023/02/05 09:53:27;;;;;;;2.00;1.33;;;;;;;;;;5024419;28;20444;-72
2023/02/05 09:55:53;;;;;;;1.85;1.30;;;;;;;;;;5022262;28;20493;-72
2023/02/05 09:58:26;;;;;;;2.42;1.55;;;;;;;;;;5023114;28;20034;-78
2023/02/05 10:01:01;;;;;;;2.10;1.45;;;;;;;;;;5020913;28;20055;-73
2023/02/05 10:03:29;;;;;;;2.00;1.20;;;;;;;;;;5032322;28;20449;-72
2023/02/05 10:06:10;;;;;;;1.02;0.95;;;;;;;;;;5019520;28;20257;-72
2023/02/05 10:08:56;;;;;;;1.25;0.98;;;;;;;;;;5022406;28;20026;-73
2023/02/05 10:11:38;;;;;;;2.55;1.42;;;;;;;;;;5015486;28;20045;-73
2023/02/05 10:14:10;;;;;;;5.13;1.25;;;;;;;;;;5027163;28;20033;-72
2023/02/05 10:16:42;;;;;;;2.70;1.30;;;;;;;;;;5036856;28;20039;-72
2023/02/05 10:19:27;;;;;;;1.40;0.95;;;;;;;;;;5028672;28;20071;-72
2023/02/05 10:22:04;;;;;;;2.17;1.48;;;;;;;;;;5018294;28;20086;-74
2023/02/05 10:24:46;;;;;;;1.30;1.10;;;;;;;;;;5016337;28;20032;-73
2023/02/05 10:27:17;;;;;;;2.22;1.17;;;;;;;;;;5020025;28;20390;-73
2023/02/05 10:30:03;;;;;;;1.90;1.10;;;;;;;;;;5018929;28;20038;-73
2023/02/05 10:32:38;;;;;;;1.80;1.20;;;;;;;;;;5026662;28;20399;-72
2023/02/05 10:35:07;;;;;;;2.15;1.10;;;;;;;;;;5019875;28;20039;-73
2023/02/05 10:37:34;;;;;;;1.70;1.00;;;;;;;;;;5016873;28;20398;-76
2023/02/05 10:40:00;;;;;;;1.77;1.20;;;;;;;;;;5028064;28;20033;-71
2023/02/05 10:42:34;;;;;;;2.13;1.58;;;;;;;;;;5015309;28;20421;-73
2023/02/05 10:45:04;;;;;;;3.50;1.80;;;;;;;;;;5021430;28;20472;-73
2023/02/05 10:47:39;;;;;;;3.30;1.80;;;;;;;;;;5014926;28;20045;-74
2023/02/05 10:50:15;;;;;;;5.97;1.88;;;;;;;;;;5015300;28;20513;-74
2023/02/05 10:52:41;;;;;;;3.53;1.60;;;;;;;;;;5025638;28;20040;-73
2023/02/05 10:55:11;;;;;;;2.78;1.50;;;;;;;;;;5015946;28;20033;-73
2023/02/05 10:57:37;;;;;;;3.10;2.22;;;;;;;;;;5017612;28;20033;-74
2023/02/05 11:00:07;;;;;;;3.60;1.83;;;;;;;;;;5015326;28;20047;-74
2023/02/05 11:02:37;;;;;;;3.63;2.28;;;;;;;;;;5014288;28;20029;-74
2023/02/05 11:05:06;;;;;;;5.07;2.13;;;;;;;;;;5016250;28;20026;-74
2023/02/05 11:07:35;;;;;;;4.15;1.85;;;;;;;;;;5011623;28;20021;-73
2023/02/05 11:10:20;;;;;;;2.30;1.65;;;;;;;;;;5014754;28;20037;-78
2023/02/05 11:12:47;;;;;;;2.83;1.55;;;;;;;;;;5021205;28;20026;-75
2023/02/05 11:15:30;;;;;;;3.28;2.10;;;;;;;;;;5014237;28;20031;-75
2023/02/05 11:18:00;;;;;;;3.95;1.63;;;;;;;;;;5023875;28;20032;-73
2023/02/05 11:20:31;;;;;;;4.93;2.00;;;;;;;;;;5010816;28;20129;-73
2023/02/05 11:23:08;;;;;;;4.20;1.70;;;;;;;;;;5023030;28;20397;-71
2023/02/05 11:25:34;;;;;;;4.45;1.98;;;;;;;;;;5012289;28;20022;-72
2023/02/05 11:28:04;;;;;;;5.18;2.17;;;;;;;;;;5019833;28;20502;-71
2023/02/05 11:30:32;;;;;;;3.60;2.28;;;;;;;;;;4999316;28;20112;-71
2023/02/05 11:32:59;;;;;;;5.72;2.33;;;;;;;;;;5025789;28;20080;-73
2023/02/05 11:35:27;;;;;;;3.95;2.08;;;;;;;;;;5011148;28;20029;-73
2023/02/05 11:38:01;;;;;;;4.43;2.10;;;;;;;;;;5019661;28;20025;-71
2023/02/05 11:40:29;;;;;;;2.30;1.50;;;;;;;;;;5009766;28;20033;-72
2023/02/05 11:43:00;;;;;;;2.28;1.52;;;;;;;;;;5018913;28;20059;-72
2023/02/05 11:45:28;;;;;;;4.45;1.98;;;;;;;;;;5008431;28;20024;-71
2023/02/05 11:47:56;;;;;;;8.85;2.10;;;;;;;;;;5019515;28;20022;-72
2023/02/05 11:50:24;;;;;;;2.50;1.92;;;;;;;;;;5015875;28;20029;-72
2023/02/05 11:52:51;;;;;;;3.70;1.85;;;;;;;;;;5017668;28;20041;-72
2023/02/05 11:55:25;;;;;;;4.15;1.60;;;;;;;;;;5020663;28;20026;-72
2023/02/05 11:57:57;;;;;;;4.10;1.83;;;;;;;;;;5018037;28;20040;-72
2023/02/05 12:00:23;;;;;;;3.20;1.92;;;;;;;;;;5030043;28;20045;-73
2023/02/05 12:02:52;;;;;;;6.15;1.70;;;;;;;;;;5038257;28;20239;-72
2023/02/05 12:05:26;;;;;;;4.25;1.92;;;;;;;;;;5024928;28;20037;-72
2023/02/05 12:07:55;;;;;;;4.15;1.95;;;;;;;;;;5019230;28;20036;-72
2023/02/05 12:10:42;;;;;;;4.30;1.75;;;;;;;;;;5026504;28;20025;-72
2023/02/05 12:13:26;;;;;;;4.20;2.05;;;;;;;;;;5025227;28;20057;-72
2023/02/05 12:15:58;;;;;;;3.30;1.75;;;;;;;;;;5018791;28;20566;-72
2023/02/05 12:18:44;;;;;;;3.25;1.70;;;;;;;;;;5021459;28;20025;-72
2023/02/05 12:21:29;;;;;;;4.95;1.80;;;;;;;;;;5016261;28;20044;-73
2023/02/05 12:24:21;;;;;;;3.70;1.27;;;;;;;;;;5026094;28;20035;-72
2023/02/05 12:26:49;;;;;;;3.88;1.67;;;;;;;;;;5025779;28;20028;-72
2023/02/05 12:29:34;;;;;;;3.13;1.75;;;;;;;;;;5021823;28;20060;-72
2023/02/05 12:32:00;;;;;;;5.40;1.95;;;;;;;;;;5018951;28;20117;-73
2023/02/05 12:34:41;;;;;;;2.30;1.60;;;;;;;;;;5020034;28;20374;-72
2023/02/05 12:37:11;;;;;;;5.45;1.42;;;;;;;;;;5010426;28;20033;-72
2023/02/05 12:39:52;;;;;;;2.85;1.70;;;;;;;;;;5023064;28;20072;-72
2023/02/05 12:42:23;;;;;;;3.20;1.50;;;;;;;;;;5021799;28;20570;-72
2023/02/05 12:45:08;;;;;;;2.40;1.33;;;;;;;;;;5026826;28;20045;-72
2023/02/05 12:47:52;;;;;;;4.97;1.40;;;;;;;;;;5016398;28;20095;-72
2023/02/05 12:50:41;;;;;;;3.65;1.67;;;;;;;;;;5017397;28;20555;-72
2023/02/05 12:53:13;;;;;;;2.55;1.80;;;;;;;;;;4992567;28;20075;-72
2023/02/05 12:55:54;;;;;;;1.88;1.45;;;;;;;;;;5026734;28;20594;-73
2023/02/05 12:58:20;;;;;;;2.22;1.65;;;;;;;;;;5025141;28;20067;-73
2023/02/05 13:00:58;;;;;;;2.65;1.80;;;;;;;;;;5020012;28;20041;-72
2023/02/05 13:03:37;;;;;;;2.83;1.50;;;;;;;;;;5023188;28;20025;-73
2023/02/05 13:06:08;;;;;;;1.42;0.93;;;;;;;;;;5022724;28;20026;-72
2023/02/05 13:08:46;;;;;;;2.70;1.35;;;;;;;;;;5025757;28;20025;-73
2023/02/05 13:11:16;;;;;;;1.48;1.05;;;;;;;;;;5016136;28;20553;-72
2023/02/05 13:13:46;;;;;;;2.20;1.40;;;;;;;;;;5024763;28;20061;-72
2023/02/05 13:16:14;;;;;;;1.35;1.05;;;;;;;;;;5026259;28;20551;-72
2023/02/05 13:18:42;;;;;;;1.75;1.27;;;;;;;;;;5011887;28;20044;-73
2023/02/05 13:29:45;;;;;;;2.25;1.17;;;;;;;;;;5016490;28;20781;-73
2023/02/05 13:32:14;;;;;;;1.30;1.08;;;;;;;;;;5012828;28;20084;-74
2023/02/05 13:34:40;;;;;;;1.55;1.10;;;;;;;;;;5014505;28;20042;-72
2023/02/05 13:37:18;;;;;;;2.35;1.10;;;;;;;;;;5018419;28;20080;-73
2023/02/05 13:40:09;;;;;;;2.17;1.08;;;;;;;;;;5013013;28;20037;-73
2023/02/05 13:42:46;;;;;;;2.30;1.13;;;;;;;;;;5007429;28;20025;-73
2023/02/05 13:45:24;;;;;;;2.45;1.08;;;;;;;;;;5017881;28;20037;-73
2023/02/05 13:48:06;;;;;;;1.65;0.95;;;;;;;;;;5017890;28;20116;-71
2023/02/05 13:50:32;;;;;;;2.67;0.90;;;;;;;;;;5018726;28;20052;-72
2023/02/05 13:53:17;;;;;;;1.23;1.02;;;;;;;;;;5013618;28;20662;-72
2023/02/05 13:56:02;;;;;;;1.88;1.00;;;;;;;;;;5010192;28;20045;-72
2023/02/05 13:58:31;;;;;;;1.10;0.98;;;;;;;;;;5022419;28;20029;-72
2023/02/05 14:01:02;;;;;;;2.42;1.17;;;;;;;;;;5014631;28;20049;-72
2023/02/05 14:03:29;;;;;;;1.83;0.90;;;;;;;;;;5016425;28;20116;-72
2023/02/05 14:05:55;;;;;;;2.10;1.20;;;;;;;;;;5013812;28;20065;-72
2023/02/05 14:08:23;;;;;;;3.35;1.05;;;;;;;;;;5005402;28;20030;-71
2023/02/05 14:11:00;;;;;;;1.17;1.05;;;;;;;;;;5020832;28;20021;-72
2023/02/05 14:13:35;;;;;;;1.77;1.23;;;;;;;;;;5023050;28;20078;-72
2023/02/05 14:16:20;;;;;;;1.48;1.02;;;;;;;;;;4992524;28;20520;-72
2023/02/05 14:18:52;;;;;;;1.48;1.05;;;;;;;;;;5021185;28;20651;-71
2023/02/05 14:21:31;;;;;;;2.90;1.00;;;;;;;;;;5003328;28;20029;-72
2023/02/05 14:24:25;;;;;;;1.73;0.95;;;;;;;;;;5023649;28;20041;-71
2023/02/05 14:26:54;;;;;;;1.27;0.85;;;;;;;;;;5026373;28;20104;-72
2023/02/05 14:29:40;;;;;;;1.60;1.10;;;;;;;;;;5009629;28;20531;-72
2023/02/05 14:32:06;;;;;;;1.10;0.90;;;;;;;;;;5025192;28;20246;-71
2023/02/05 14:34:32;;;;;;;1.38;0.80;;;;;;;;;;5019628;28;20043;-71
2023/02/05 14:36:58;;;;;;;1.05;0.82;;;;;;;;;;5018751;28;20401;-71
2023/02/05 14:39:29;;;;;;;1.70;0.95;;;;;;;;;;5022415;28;20047;-73
2023/02/05 14:41:58;;;;;;;0.93;0.77;;;;;;;;;;5031756;28;20036;-72
2023/02/05 14:44:29;;;;;;;1.92;1.10;;;;;;;;;;5017046;28;20108;-71
2023/02/05 14:47:01;;;;;;;1.88;0.90;;;;;;;;;;5020966;28;20461;-71
2023/02/05 14:49:33;;;;;;;1.13;1.00;;;;;;;;;;5015935;28;20029;-71
2023/02/05 14:52:06;;;;;;;1.10;0.80;;;;;;;;;;5008617;28;20037;-72
2023/02/05 14:54:56;;;;;;;2.03;0.93;;;;;;;;;;5014670;28;20037;-71
2023/02/05 14:57:25;;;;;;;1.00;0.90;;;;;;;;;;5017808;28;20026;-71
2023/02/05 14:59:53;;;;;;;0.95;0.88;;;;;;;;;;5024998;28;20037;-72
2023/02/05 15:02:38;;;;;;;1.23;1.02;;;;;;;;;;5018564;28;20036;-71
2023/02/05 15:05:05;;;;;;;0.82;0.80;;;;;;;;;;5023454;28;20081;-71
2023/02/05 15:07:35;;;;;;;0.98;0.82;;;;;;;;;;5015161;28;20067;-72
2023/02/05 15:10:03;;;;;;;1.20;0.80;;;;;;;;;;5020594;28;20038;-72